createdAt,value
2019-06-01T04:00:55.495Z,1016.00
2019-06-01T04:01:55.666Z,1080.00
2019-06-01T04:02:55.840Z,1152.00
2019-06-01T04:03:56.018Z,1212.00
2019-06-01T04:04:56.186Z,1248.00
2019-06-01T04:05:56.359Z,1260.00
2019-06-01T04:06:56.535Z,1272.00
2019-06-01T04:07:56.709Z,1288.00
2019-06-01T04:08:56.880Z,1284.00
2019-06-01T04:09:57.051Z,1280.00
2019-06-01T04:10:57.228Z,1276.00
2019-06-01T04:11:57.402Z,1288.00
2019-06-01T04:12:57.567Z,1312.00
2019-06-01T04:13:57.742Z,1328.00
2019-06-01T04:14:57.915Z,1368.00
2019-06-01T04:15:58.083Z,1404.00
2019-06-01T04:16:58.252Z,1412.00
2019-06-01T04:17:58.426Z,1456.00
2019-06-01T04:18:58.599Z,1504.00
2019-06-01T04:19:58.769Z,1552.00
2019-06-01T04:20:58.940Z,1588.00
2019-06-01T04:21:59.110Z,1632.00
2019-06-01T04:22:59.286Z,1648.00
2019-06-01T04:23:59.455Z,1664.00
2019-06-01T04:24:59.630Z,1684.00
2019-06-01T04:25:59.800Z,1696.00
2019-06-01T04:26:59.972Z,1724.00
2019-06-01T04:28:00.144Z,1744.00
2019-06-01T04:29:00.316Z,1740.00
2019-06-01T04:30:00.487Z,1740.00
2019-06-01T04:31:00.663Z,1760.00
2019-06-01T04:32:00.846Z,1772.00
2019-06-01T04:33:01.009Z,1784.00
2019-06-01T04:34:01.406Z,1784.00
2019-06-01T04:35:03.112Z,1784.00
2019-06-01T04:36:02.682Z,1816.00
2019-06-01T04:37:03.463Z,1828.00
2019-06-01T04:38:02.942Z,1864.00
2019-06-01T04:39:03.253Z,1924.00
2019-06-01T04:40:03.314Z,1964.00
2019-06-01T04:41:03.489Z,1948.00
2019-06-01T04:42:03.478Z,1952.00
2019-06-01T04:43:03.713Z,1980.00
2019-06-01T04:44:03.771Z,1992.00
2019-06-01T04:45:04.289Z,1976.00
2019-06-01T04:46:04.016Z,1948.00
2019-06-01T04:47:04.297Z,1964.00
2019-06-01T04:48:04.340Z,1992.00
2019-06-01T04:49:04.359Z,2008.00
2019-06-01T04:50:04.534Z,2096.00
2019-06-01T04:51:04.558Z,2184.00
2019-06-01T04:52:04.651Z,2236.00
2019-06-01T04:53:04.677Z,2264.00
2019-06-01T04:54:04.856Z,2260.00
2019-06-01T04:55:05.152Z,2232.00
2019-06-01T04:56:05.001Z,2220.00
2019-06-01T04:57:05.179Z,2188.00
2019-06-01T04:58:05.348Z,2140.00
2019-06-01T04:59:06.724Z,2100.00
2019-06-01T05:00:15.220Z,2064.00
2019-06-01T05:01:06.915Z,2048.00
2019-06-01T05:02:07.252Z,2096.00
2019-06-01T05:03:08.521Z,2248.00
2019-06-01T05:04:07.114Z,2416.00
2019-06-01T05:05:07.185Z,2456.00
2019-06-01T05:06:07.176Z,2476.00
2019-06-01T05:07:07.265Z,2520.00
2019-06-01T05:08:07.238Z,2572.00
2019-06-01T05:09:07.317Z,2636.00
2019-06-01T05:10:07.650Z,2692.00
2019-06-01T05:11:08.966Z,2744.00
2019-06-01T05:12:07.782Z,2780.00
2019-06-01T05:13:08.013Z,2812.00
2019-06-01T05:14:08.138Z,2872.00
2019-06-01T05:15:09.765Z,2900.00
2019-06-01T05:16:08.460Z,2912.00
2019-06-01T05:17:10.049Z,2980.00
2019-06-01T05:18:09.966Z,3056.00
2019-06-01T05:19:10.110Z,3144.00
2019-06-01T05:20:10.340Z,3220.00
2019-06-01T05:21:10.367Z,3264.00
2019-06-01T05:22:10.491Z,3324.00
2019-06-01T05:23:10.590Z,3432.00
2019-06-01T05:24:10.646Z,3548.00
2019-06-01T05:25:11.908Z,3632.00
2019-06-01T05:26:10.946Z,3712.00
2019-06-01T05:27:11.134Z,3852.00
2019-06-01T05:28:11.211Z,3948.00
2019-06-01T05:29:11.663Z,3964.00
2019-06-01T05:30:11.547Z,4008.00
2019-06-01T05:31:14.912Z,4060.00
2019-06-01T05:32:12.517Z,4144.00
2019-06-01T05:33:24.690Z,4232.00
2019-06-01T05:34:11.859Z,4308.00
2019-06-01T05:35:11.883Z,4392.00
2019-06-01T05:36:12.078Z,4456.00
2019-06-01T05:37:12.380Z,4504.00
2019-06-01T05:38:12.345Z,4576.00
2019-06-01T05:39:12.521Z,4680.00
2019-06-01T05:40:12.696Z,4796.00
2019-06-01T05:41:13.248Z,4876.00
2019-06-01T05:42:13.039Z,4948.00
2019-06-01T05:43:17.176Z,4980.00
2019-06-01T05:44:13.384Z,4984.00
2019-06-01T05:45:13.557Z,4952.00
2019-06-01T05:46:14.059Z,4992.00
2019-06-01T05:47:14.257Z,5044.00
2019-06-01T05:48:22.920Z,5048.00
2019-06-01T05:49:14.714Z,5016.00
2019-06-01T05:50:14.612Z,5056.00
2019-06-01T05:51:16.838Z,5192.00
2019-06-01T05:52:14.755Z,5260.00
2019-06-01T05:53:14.931Z,5372.00
2019-06-01T05:54:15.095Z,5460.00
2019-06-01T05:55:15.267Z,5872.00
2019-06-01T05:56:16.758Z,5892.00
2019-06-01T05:57:16.725Z,5984.00
2019-06-01T05:58:17.128Z,6276.00
2019-06-01T05:59:16.041Z,6188.00
2019-06-01T06:00:17.197Z,6116.00
2019-06-01T06:01:16.496Z,6100.00
2019-06-01T06:02:17.477Z,6160.00
2019-06-01T06:03:20.772Z,6112.00
2019-06-01T06:04:17.549Z,6064.00
2019-06-01T06:05:17.013Z,6076.00
2019-06-01T06:06:17.777Z,6100.00
2019-06-01T06:07:17.390Z,6068.00
2019-06-01T06:08:18.028Z,6020.00
2019-06-01T06:09:19.042Z,5992.00
2019-06-01T06:10:18.513Z,6032.00
2019-06-01T06:11:19.021Z,6100.00
2019-06-01T06:12:19.465Z,6148.00
2019-06-01T06:13:19.375Z,6300.00
2019-06-01T06:14:20.673Z,6476.00
2019-06-01T06:15:19.724Z,6716.00
2019-06-01T06:16:20.736Z,6912.00
2019-06-01T06:17:20.274Z,7116.00
2019-06-01T06:18:19.828Z,7304.00
2019-06-01T06:19:22.154Z,7496.00
2019-06-01T06:20:20.146Z,7544.00
2019-06-01T06:21:20.247Z,7592.00
2019-06-01T06:22:20.333Z,7616.00
2019-06-01T06:23:20.569Z,7708.00
2019-06-01T06:24:20.601Z,7812.00
2019-06-01T06:25:20.519Z,7880.00
2019-06-01T06:26:22.356Z,7988.00
2019-06-01T06:27:20.856Z,7924.00
2019-06-01T06:28:21.029Z,7896.00
2019-06-01T06:29:21.204Z,7716.00
2019-06-01T06:30:21.383Z,7504.00
2019-06-01T06:31:21.554Z,7484.00
2019-06-01T06:32:21.726Z,7516.00
2019-06-01T06:33:21.908Z,7628.00
2019-06-01T06:34:22.086Z,7628.00
2019-06-01T06:35:22.258Z,7476.00
2019-06-01T06:36:22.437Z,7204.00
2019-06-01T06:37:23.801Z,6928.00
2019-06-01T06:38:23.955Z,6828.00
2019-06-01T06:39:24.109Z,6836.00
2019-06-01T06:40:24.199Z,6808.00
2019-06-01T06:41:24.375Z,6752.00
2019-06-01T06:42:24.431Z,6740.00
2019-06-01T06:43:32.236Z,6812.00
2019-06-01T06:44:24.775Z,6908.00
2019-06-01T06:45:24.942Z,6912.00
2019-06-01T06:46:24.845Z,6856.00
2019-06-01T06:47:25.129Z,6800.00
2019-06-01T06:48:25.286Z,6756.00
2019-06-01T06:49:25.374Z,6752.00
2019-06-01T06:50:25.637Z,6788.00
2019-06-01T06:51:25.522Z,6956.00
2019-06-01T06:52:25.704Z,7216.00
2019-06-01T06:53:34.779Z,7488.00
2019-06-01T06:54:26.035Z,7704.00
2019-06-01T06:55:26.144Z,7944.00
2019-06-01T06:56:26.203Z,8240.00
2019-06-01T06:57:26.316Z,8564.00
2019-06-01T06:58:26.581Z,8844.00
2019-06-01T06:59:26.831Z,9056.00
2019-06-01T07:00:27.010Z,9088.00
2019-06-01T07:01:27.019Z,9112.00
2019-06-01T07:02:27.110Z,9020.00
2019-06-01T07:03:27.242Z,8724.00
2019-06-01T07:04:27.563Z,8340.00
2019-06-01T07:05:30.716Z,7996.00
2019-06-01T07:06:27.755Z,7896.00
2019-06-01T07:07:27.932Z,8056.00
2019-06-01T07:08:28.107Z,8272.00
2019-06-01T07:09:28.374Z,8612.00
2019-06-01T07:10:28.413Z,8532.00
2019-06-01T07:11:29.472Z,8828.00
2019-06-01T07:12:28.809Z,8116.00
2019-06-01T07:13:28.902Z,7824.00
2019-06-01T07:14:29.082Z,7528.00
2019-06-01T07:15:29.260Z,7448.00
2019-06-01T07:16:29.428Z,7488.00
2019-06-01T07:17:29.615Z,7444.00
2019-06-01T07:18:29.782Z,7452.00
2019-06-01T07:19:29.967Z,7712.00
2019-06-01T07:20:30.170Z,8172.00
2019-06-01T07:21:30.322Z,8356.00
2019-06-01T07:22:30.496Z,8448.00
2019-06-01T07:23:30.713Z,9284.00
2019-06-01T07:24:32.063Z,9656.00
2019-06-01T07:28:03.202Z,9636.00
2019-06-01T07:29:03.376Z,9448.00
2019-06-01T07:30:03.569Z,9328.00
2019-06-01T07:31:03.729Z,8800.00
2019-06-01T07:32:03.908Z,8720.00
2019-06-01T07:33:04.076Z,8616.00
2019-06-01T07:34:04.255Z,7780.00
2019-06-01T07:35:04.422Z,7496.00
2019-06-01T07:36:04.616Z,7424.00
2019-06-01T07:37:04.776Z,7776.00
2019-06-01T07:38:04.951Z,7676.00
2019-06-01T07:39:05.129Z,7796.00
2019-06-01T07:40:05.308Z,7700.00
2019-06-01T07:41:05.483Z,6960.00
2019-06-01T07:42:05.657Z,6796.00
2019-06-01T07:43:05.823Z,7132.00
2019-06-01T07:44:06.000Z,7204.00
2019-06-01T07:45:06.175Z,7084.00
2019-06-01T07:46:06.347Z,6880.00
2019-06-01T07:47:06.516Z,6920.00
2019-06-01T07:48:06.693Z,6860.00
2019-06-01T07:49:06.867Z,6800.00
2019-06-01T07:50:07.041Z,6848.00
2019-06-01T07:51:07.224Z,6828.00
2019-06-01T07:52:12.609Z,6812.00
2019-06-01T07:53:07.582Z,6764.00
2019-06-01T07:54:07.765Z,6732.00
2019-06-01T07:55:07.936Z,6696.00
2019-06-01T07:56:08.111Z,6676.00
2019-06-01T07:57:08.302Z,6668.00
2019-06-01T07:58:08.477Z,6668.00
2019-06-01T07:59:08.634Z,6656.00
2019-06-01T08:00:08.802Z,6712.00
2019-06-01T08:01:08.982Z,6720.00
2019-06-01T08:02:09.168Z,6776.00
2019-06-01T08:03:09.332Z,6596.00
2019-06-01T08:04:09.499Z,6812.00
2019-06-01T08:05:09.697Z,6816.00
2019-06-01T08:06:09.849Z,6824.00
2019-06-01T08:07:10.023Z,6908.00
2019-06-01T08:08:10.190Z,6968.00
2019-06-01T08:09:10.377Z,6968.00
2019-06-01T08:10:10.546Z,6972.00
2019-06-01T08:11:10.727Z,7076.00
2019-06-01T08:12:10.890Z,6640.00
2019-06-01T08:13:11.062Z,6740.00
2019-06-01T08:14:11.228Z,7276.00
2019-06-01T08:15:11.402Z,7076.00
2019-06-01T08:16:11.577Z,7492.00
2019-06-01T08:17:11.751Z,7732.00
2019-06-01T08:18:11.927Z,7912.00
2019-06-01T08:19:12.100Z,8004.00
2019-06-01T08:20:12.318Z,7936.00
2019-06-01T08:21:12.451Z,7940.00
2019-06-01T08:22:12.647Z,8000.00
2019-06-01T08:23:12.801Z,7848.00
2019-06-01T08:24:13.071Z,7960.00
2019-06-01T08:25:13.157Z,8064.00
2019-06-01T08:26:13.334Z,8008.00
2019-06-01T08:27:13.504Z,7708.00
2019-06-01T08:28:13.675Z,7924.00
2019-06-01T08:29:13.851Z,7748.00
2019-06-01T08:30:14.030Z,7532.00
2019-06-01T08:31:14.200Z,7420.00
2019-06-01T08:32:14.376Z,7344.00
2019-06-01T08:33:14.586Z,7264.00
2019-06-01T08:34:14.726Z,7156.00
2019-06-01T08:35:14.899Z,7044.00
2019-06-01T08:36:15.073Z,7076.00
2019-06-01T08:37:15.268Z,7056.00
2019-06-01T08:38:15.423Z,7140.00
2019-06-01T08:39:15.598Z,7196.00
2019-06-01T08:40:15.776Z,7216.00
2019-06-01T08:41:15.952Z,7280.00
2019-06-01T08:42:16.128Z,7320.00
2019-06-01T08:43:16.301Z,7356.00
2019-06-01T08:44:16.476Z,7380.00
2019-06-01T08:45:16.652Z,7360.00
2019-06-01T08:46:16.830Z,7412.00
2019-06-01T08:47:17.003Z,7408.00
2019-06-01T08:48:17.175Z,7372.00
2019-06-01T08:49:17.354Z,7464.00
2019-06-01T08:50:17.527Z,7604.00
2019-06-01T08:51:17.705Z,7604.00
2019-06-01T08:52:17.875Z,7668.00
2019-06-01T08:53:18.073Z,7728.00
2019-06-01T08:54:18.221Z,7804.00
2019-06-01T08:55:18.391Z,7852.00
2019-06-01T08:56:21.801Z,7908.00
2019-06-01T08:57:18.741Z,7928.00
2019-06-01T08:58:18.921Z,8028.00
2019-06-01T08:59:19.092Z,8212.00
2019-06-01T09:00:19.269Z,8404.00
2019-06-01T09:01:19.444Z,8492.00
2019-06-01T09:02:19.621Z,8328.00
2019-06-01T09:03:19.795Z,8564.00
2019-06-01T09:04:19.970Z,8752.00
2019-06-01T09:05:24.328Z,8788.00
2019-06-01T09:06:20.321Z,9104.00
2019-06-01T09:07:20.513Z,9204.00
2019-06-01T09:08:23.702Z,9128.00
2019-06-01T09:09:20.842Z,9524.00
2019-06-01T09:10:21.011Z,9840.00
2019-06-01T09:11:21.191Z,10180.00
2019-06-01T09:12:21.360Z,10372.00
2019-06-01T09:13:21.533Z,10292.00
2019-06-01T09:14:21.707Z,9972.00
2019-06-01T09:15:21.883Z,9856.00
2019-06-01T09:16:22.071Z,9740.00
2019-06-01T09:17:22.236Z,9456.00
2019-06-01T09:18:22.413Z,9280.00
2019-06-01T09:19:22.592Z,9264.00
2019-06-01T09:20:22.785Z,9380.00
2019-06-01T09:21:22.959Z,9636.00
2019-06-01T09:22:23.112Z,9972.00
2019-06-01T09:23:23.295Z,10124.00
2019-06-01T09:24:23.472Z,10252.00
2019-06-01T09:25:23.645Z,10504.00
2019-06-01T09:26:23.847Z,10576.00
2019-06-01T09:27:23.997Z,10440.00
2019-06-01T09:28:24.183Z,10192.00
2019-06-01T09:29:25.734Z,9964.00
2019-06-01T09:30:25.789Z,9732.00
2019-06-01T09:31:26.136Z,9556.00
2019-06-01T09:32:26.002Z,9456.00
2019-06-01T09:33:26.058Z,9332.00
2019-06-01T09:34:26.186Z,9212.00
2019-06-01T09:35:46.289Z,9412.00
2019-06-01T09:36:26.155Z,9580.00
2019-06-01T09:37:26.443Z,9416.00
2019-06-01T09:38:25.931Z,9352.00
2019-06-01T09:39:26.668Z,9844.00
2019-06-01T09:40:28.265Z,9944.00
2019-06-01T09:41:26.476Z,10012.00
2019-06-01T09:42:26.744Z,10164.00
2019-06-01T09:43:26.819Z,10468.00
2019-06-01T09:44:26.994Z,10756.00
2019-06-01T09:45:27.810Z,10816.00
2019-06-01T09:46:27.344Z,11500.00
2019-06-01T09:47:27.531Z,10552.00
2019-06-01T09:48:27.691Z,11164.00
2019-06-01T09:49:29.075Z,11352.00
2019-06-01T09:50:29.172Z,11588.00
2019-06-01T09:51:29.447Z,10012.00
2019-06-01T09:52:29.246Z,9532.00
2019-06-01T09:53:29.361Z,8736.00
2019-06-01T09:54:29.388Z,9128.00
2019-06-01T09:55:30.621Z,9180.00
2019-06-01T09:56:30.884Z,9936.00
2019-06-01T09:57:29.844Z,10412.00
2019-06-01T09:58:30.164Z,11380.00
2019-06-01T09:59:29.784Z,31264.00
2019-06-01T10:00:30.333Z,33248.00
2019-06-01T10:01:30.126Z,34752.00
2019-06-01T10:02:30.166Z,35872.00
2019-06-01T10:03:30.334Z,20832.00
2019-06-01T10:04:30.506Z,13360.00
2019-06-01T10:05:30.682Z,27808.00
2019-06-01T10:06:30.858Z,27648.00
2019-06-01T10:07:31.038Z,35168.00
2019-06-01T10:08:32.592Z,35904.00
2019-06-01T10:09:31.562Z,37248.00
2019-06-01T10:10:31.922Z,38624.00
2019-06-01T10:11:32.615Z,39232.00
2019-06-01T10:12:31.966Z,40576.00
2019-06-01T10:13:33.370Z,41536.00
2019-06-01T10:14:32.263Z,24672.00
2019-06-01T10:15:32.513Z,15328.00
2019-06-01T10:16:32.822Z,24352.00
2019-06-01T10:17:33.289Z,18304.00
2019-06-01T10:18:33.014Z,44352.00
2019-06-01T10:19:33.141Z,44928.00
2019-06-01T10:20:33.321Z,43968.00
2019-06-01T10:21:33.958Z,44128.00
2019-06-01T10:22:34.997Z,43840.00
2019-06-01T10:23:34.479Z,31072.00
2019-06-01T10:24:35.100Z,36832.00
2019-06-01T10:25:34.501Z,43520.00
2019-06-01T10:26:35.611Z,44448.00
2019-06-01T10:27:34.583Z,46080.00
2019-06-01T10:28:35.736Z,46784.00
2019-06-01T10:29:34.938Z,46432.00
2019-06-01T10:30:35.778Z,46784.00
2019-06-01T10:31:35.293Z,47904.00
2019-06-01T10:32:35.737Z,13212.00
2019-06-01T10:33:37.324Z,35040.00
2019-06-01T10:34:35.851Z,29760.00
2019-06-01T10:35:36.956Z,47392.00
2019-06-01T10:36:36.196Z,49408.00
2019-06-01T10:37:37.579Z,50336.00
2019-06-01T10:38:37.391Z,48640.00
2019-06-01T10:39:37.203Z,49120.00
2019-06-01T10:40:37.624Z,51488.00
2019-06-01T10:41:37.448Z,13200.00
2019-06-01T10:42:38.023Z,43296.00
2019-06-01T10:43:37.720Z,49568.00
2019-06-01T10:44:41.834Z,50432.00
2019-06-01T10:45:37.853Z,13360.00
2019-06-01T10:46:38.116Z,53696.00
2019-06-01T10:47:38.440Z,53024.00
2019-06-01T10:48:38.376Z,52352.00
2019-06-01T10:49:38.556Z,51392.00
2019-06-01T10:50:38.738Z,34432.00
2019-06-01T10:51:40.234Z,45312.00
2019-06-01T10:52:40.399Z,12100.00
2019-06-01T10:53:41.250Z,19040.00
2019-06-01T10:54:40.268Z,46272.00
2019-06-01T10:55:40.309Z,54688.00
2019-06-01T10:56:40.583Z,32352.00
2019-06-01T10:57:40.613Z,23424.00
2019-06-01T10:58:58.806Z,13064.00
2019-06-01T10:59:40.587Z,58304.00
2019-06-01T11:00:47.765Z,59840.00
2019-06-01T11:01:40.964Z,58464.00
2019-06-01T11:02:40.996Z,55040.00
2019-06-01T11:03:41.106Z,59936.00
2019-06-01T11:04:41.288Z,58752.00
2019-06-01T11:05:41.462Z,58304.00
2019-06-01T11:06:47.763Z,59072.00
2019-06-01T11:07:43.026Z,58496.00
2019-06-01T11:08:43.168Z,59360.00
2019-06-01T11:09:43.255Z,61600.00
2019-06-01T11:10:43.228Z,60960.00
2019-06-01T11:11:43.181Z,57024.00
2019-06-01T11:12:43.235Z,58464.00
2019-06-01T11:13:43.274Z,58336.00
2019-06-01T11:14:43.429Z,61440.00
2019-06-01T11:15:43.353Z,60992.00
2019-06-01T11:16:44.047Z,61952.00
2019-06-01T11:17:43.642Z,57696.00
2019-06-01T11:18:43.833Z,27808.00
2019-06-01T11:19:44.014Z,45760.00
2019-06-01T11:20:44.192Z,62368.00
2019-06-01T11:21:44.378Z,60416.00
2019-06-01T11:22:44.557Z,55584.00
2019-06-01T11:23:46.558Z,55712.00
2019-06-01T11:24:44.925Z,55456.00
2019-06-01T11:25:45.112Z,59712.00
2019-06-01T11:26:45.292Z,58336.00
2019-06-01T11:27:45.476Z,56896.00
2019-06-01T11:28:45.656Z,54752.00
2019-06-01T11:29:50.993Z,55168.00
2019-06-01T11:30:46.022Z,58592.00
2019-06-01T11:31:46.207Z,60960.00
2019-06-01T11:32:46.390Z,61760.00
2019-06-01T11:33:46.580Z,60096.00
2019-06-01T11:34:46.770Z,61888.00
2019-06-01T11:35:46.953Z,57888.00
2019-06-01T11:37:04.966Z,58112.00
2019-06-01T11:37:47.317Z,56832.00
2019-06-01T11:38:47.500Z,58336.00
2019-06-01T11:39:47.684Z,59200.00
2019-06-01T11:40:47.868Z,57824.00
2019-06-01T11:41:48.110Z,49568.00
2019-06-01T11:42:48.250Z,28096.00
2019-06-01T11:43:48.420Z,57376.00
2019-06-01T11:44:48.607Z,17600.00
2019-06-01T11:45:48.790Z,17408.00
2019-06-01T11:46:48.977Z,20416.00
2019-06-01T11:47:49.165Z,17600.00
2019-06-01T11:48:49.342Z,57664.00
2019-06-01T11:49:49.527Z,45344.00
2019-06-01T11:50:49.711Z,59904.00
2019-06-01T11:51:49.897Z,63776.00
2019-06-01T11:52:50.080Z,61280.00
2019-06-01T11:53:50.266Z,47392.00
2019-06-01T11:54:50.446Z,21312.00
2019-06-01T11:55:50.648Z,41856.00
2019-06-01T11:56:50.816Z,42752.00
2019-06-01T11:57:51.001Z,40256.00
2019-06-01T11:58:51.184Z,39008.00
2019-06-01T11:59:51.368Z,41632.00
2019-06-01T12:00:51.566Z,22272.00
2019-06-01T12:01:51.812Z,18400.00
2019-06-01T12:02:51.921Z,28512.00
2019-06-01T12:03:52.103Z,43680.00
2019-06-01T12:04:52.288Z,43456.00
2019-06-01T12:05:52.470Z,46304.00
2019-06-01T12:06:52.652Z,30816.00
2019-06-01T12:07:52.838Z,34848.00
2019-06-01T12:08:53.021Z,31680.00
2019-06-01T12:09:53.201Z,18656.00
2019-06-01T12:10:53.390Z,22112.00
2019-06-01T12:11:53.582Z,20128.00
2019-06-01T12:12:53.753Z,22112.00
2019-06-01T12:13:53.943Z,43264.00
2019-06-01T12:14:54.124Z,64768.00
2019-06-01T12:15:54.305Z,65568.00
2019-06-01T12:16:54.489Z,52640.00
2019-06-01T12:17:54.675Z,22528.00
2019-06-01T12:18:54.854Z,25888.00
2019-06-01T12:19:55.042Z,68160.00
2019-06-01T12:20:55.222Z,68992.00
2019-06-01T12:21:55.403Z,67680.00
2019-06-01T12:22:55.593Z,62368.00
2019-06-01T12:23:55.770Z,62432.00
2019-06-01T12:24:55.955Z,62816.00
2019-06-01T12:25:56.137Z,61152.00
2019-06-01T12:26:56.325Z,57152.00
2019-06-01T12:27:56.506Z,65696.00
2019-06-01T12:28:56.689Z,66016.00
2019-06-01T12:29:56.884Z,18240.00
2019-06-01T12:30:57.060Z,17184.00
2019-06-01T12:31:57.242Z,18432.00
2019-06-01T12:32:57.423Z,24544.00
2019-06-01T12:33:57.631Z,67328.00
2019-06-01T12:34:57.789Z,30592.00
2019-06-01T12:35:58.004Z,22592.00
2019-06-01T12:36:58.179Z,51104.00
2019-06-01T12:38:06.217Z,69216.00
2019-06-01T12:38:58.521Z,69600.00
2019-06-01T12:39:58.703Z,73344.00
2019-06-01T12:40:58.882Z,75200.00
2019-06-01T12:41:59.075Z,74784.00
2019-06-01T12:42:59.263Z,69792.00
2019-06-01T12:43:59.432Z,26528.00
2019-06-01T12:44:59.615Z,59200.00
2019-06-01T12:46:07.393Z,20384.00
2019-06-01T12:46:59.978Z,23040.00
2019-06-01T12:48:00.161Z,21952.00
2019-06-01T12:49:00.347Z,66976.00
2019-06-01T12:50:00.534Z,70272.00
2019-06-01T12:51:00.720Z,62592.00
2019-06-01T12:52:00.916Z,67168.00
2019-06-01T12:53:01.091Z,72352.00
2019-06-01T12:54:01.270Z,72608.00
2019-06-01T12:55:01.451Z,69984.00
2019-06-01T12:56:01.633Z,71744.00
2019-06-01T12:57:01.816Z,73056.00
2019-06-01T12:58:02.006Z,73920.00
2019-06-01T12:59:02.198Z,74144.00
2019-06-01T13:00:02.366Z,74976.00
2019-06-01T13:01:02.930Z,50976.00
2019-06-01T13:02:02.731Z,71584.00
2019-06-01T13:03:07.465Z,71744.00
2019-06-01T13:04:03.103Z,73952.00
2019-06-01T13:05:03.284Z,77376.00
2019-06-01T13:06:03.488Z,78112.00
2019-06-01T13:07:03.656Z,75328.00
2019-06-01T13:08:03.841Z,71936.00
2019-06-01T13:09:04.026Z,73408.00
2019-06-01T13:10:04.214Z,72480.00
2019-06-01T13:11:04.397Z,70144.00
2019-06-01T13:12:04.579Z,69632.00
2019-06-01T13:13:04.767Z,42080.00
2019-06-01T13:14:04.952Z,69408.00
2019-06-01T13:15:05.144Z,71648.00
2019-06-01T13:16:05.324Z,19520.00
2019-06-01T13:17:07.752Z,71008.00
2019-06-01T13:18:05.695Z,74208.00
2019-06-01T13:19:05.883Z,70240.00
2019-06-01T13:20:06.067Z,71232.00
2019-06-01T13:21:06.252Z,68800.00
2019-06-01T13:22:06.435Z,65472.00
2019-06-01T13:23:06.622Z,66336.00
2019-06-01T13:24:06.807Z,68704.00
2019-06-01T13:25:06.995Z,68288.00
2019-06-01T13:26:07.180Z,69216.00
2019-06-01T13:27:07.363Z,68736.00
2019-06-01T13:28:07.549Z,67776.00
2019-06-01T13:29:07.734Z,67776.00
2019-06-01T13:30:07.920Z,67872.00
2019-06-01T13:31:08.101Z,69440.00
2019-06-01T13:32:08.297Z,71744.00
2019-06-01T13:33:08.484Z,73216.00
2019-06-01T13:34:08.669Z,68096.00
2019-06-01T13:35:08.851Z,66880.00
2019-06-01T13:36:09.047Z,67104.00
2019-06-01T13:37:09.224Z,68576.00
2019-06-01T13:38:12.080Z,66976.00
2019-06-01T13:39:09.597Z,63488.00
2019-06-01T13:40:09.781Z,60768.00
2019-06-01T13:41:09.966Z,62240.00
2019-06-01T13:42:10.153Z,65376.00
2019-06-01T13:43:10.341Z,64416.00
2019-06-01T13:44:10.529Z,64704.00
2019-06-01T13:45:10.715Z,69280.00
2019-06-01T13:46:10.917Z,74592.00
2019-06-01T13:47:11.097Z,69792.00
2019-06-01T13:48:11.281Z,59488.00
2019-06-01T13:49:11.488Z,56448.00
2019-06-01T13:50:11.658Z,57504.00
2019-06-01T13:51:11.847Z,56160.00
2019-06-01T13:52:12.031Z,55968.00
2019-06-01T13:53:12.216Z,60992.00
2019-06-01T13:54:12.405Z,62752.00
2019-06-01T13:55:12.588Z,58976.00
2019-06-01T13:56:12.779Z,57152.00
2019-06-01T13:57:12.964Z,58272.00
2019-06-01T13:58:13.154Z,59648.00
2019-06-01T13:59:13.346Z,57248.00
2019-06-01T14:00:15.838Z,60320.00
2019-06-01T14:01:13.711Z,65056.00
2019-06-01T14:02:13.921Z,69568.00
2019-06-01T14:03:14.086Z,64864.00
2019-06-01T14:04:14.273Z,63136.00
2019-06-01T14:05:14.460Z,58432.00
2019-06-01T14:06:14.647Z,19168.00
2019-06-01T14:07:14.837Z,58560.00
2019-06-01T14:08:28.164Z,61312.00
2019-06-01T14:09:15.204Z,58016.00
2019-06-01T14:10:15.394Z,62560.00
2019-06-01T14:11:15.581Z,62688.00
2019-06-01T14:12:15.763Z,60768.00
2019-06-01T14:13:15.950Z,63264.00
2019-06-01T14:14:16.134Z,66816.00
2019-06-01T14:15:16.337Z,70496.00
2019-06-01T14:16:16.505Z,67744.00
2019-06-01T14:17:16.696Z,65888.00
2019-06-01T14:18:16.883Z,62976.00
2019-06-01T14:19:17.069Z,58880.00
2019-06-01T14:20:17.263Z,56512.00
2019-06-01T14:21:17.453Z,57888.00
2019-06-01T14:22:17.626Z,57696.00
2019-06-01T14:23:17.824Z,55936.00
2019-06-01T14:24:18.018Z,51936.00
2019-06-01T14:25:18.262Z,53120.00
2019-06-01T14:26:18.376Z,58208.00
2019-06-01T14:27:18.568Z,59392.00
2019-06-01T14:28:18.784Z,56992.00
2019-06-01T14:29:18.947Z,54752.00
2019-06-01T14:30:19.133Z,54976.00
2019-06-01T14:31:19.316Z,54304.00
2019-06-01T14:32:19.502Z,54624.00
2019-06-01T14:33:19.689Z,53600.00
2019-06-01T14:34:19.874Z,56544.00
2019-06-01T14:35:20.059Z,54304.00
2019-06-01T14:36:20.249Z,52800.00
2019-06-01T14:37:20.434Z,52736.00
2019-06-01T14:38:20.618Z,56960.00
2019-06-01T14:39:20.809Z,57728.00
2019-06-01T14:40:21.003Z,55360.00
2019-06-01T14:41:21.184Z,53024.00
2019-06-01T14:42:21.364Z,52288.00
2019-06-01T14:43:21.553Z,53792.00
2019-06-01T14:44:21.736Z,57152.00
2019-06-01T14:45:21.923Z,55904.00
2019-06-01T14:46:22.117Z,52896.00
2019-06-01T14:47:22.296Z,46656.00
2019-06-01T14:48:22.482Z,55744.00
2019-06-01T14:49:22.671Z,54016.00
2019-06-01T14:50:22.857Z,51712.00
2019-06-01T14:51:23.043Z,51552.00
2019-06-01T14:52:23.230Z,53920.00
2019-06-01T14:53:23.413Z,53280.00
2019-06-01T14:54:23.611Z,49920.00
2019-06-01T14:55:23.785Z,47648.00
2019-06-01T14:56:23.970Z,47872.00
2019-06-01T14:57:24.155Z,48352.00
2019-06-01T14:58:24.339Z,49664.00
2019-06-01T14:59:24.523Z,48704.00
2019-06-01T15:00:24.710Z,45984.00
2019-06-01T15:01:32.664Z,43488.00
2019-06-01T15:02:25.076Z,43104.00
2019-06-01T15:03:25.272Z,43136.00
2019-06-01T15:04:25.460Z,42368.00
2019-06-01T15:05:25.641Z,44512.00
2019-06-01T15:06:25.830Z,43936.00
2019-06-01T15:07:26.013Z,40736.00
2019-06-01T15:08:26.199Z,40928.00
2019-06-01T15:09:26.387Z,45472.00
2019-06-01T15:10:26.574Z,43520.00
2019-06-01T15:11:26.755Z,39552.00
2019-06-01T15:12:26.946Z,25312.00
2019-06-01T15:13:27.127Z,31648.00
2019-06-01T15:14:27.316Z,45152.00
2019-06-01T15:15:27.505Z,43424.00
2019-06-01T15:16:27.683Z,41760.00
2019-06-01T15:17:27.869Z,43744.00
2019-06-01T15:18:28.056Z,43648.00
2019-06-01T15:19:28.238Z,42368.00
2019-06-01T15:20:28.423Z,40960.00
2019-06-01T15:21:28.607Z,39616.00
2019-06-01T15:22:28.790Z,38464.00
2019-06-01T15:23:28.979Z,38528.00
2019-06-01T15:24:29.163Z,38080.00
2019-06-01T15:25:29.349Z,39072.00
2019-06-01T15:26:29.532Z,42624.00
2019-06-01T15:27:29.717Z,42112.00
2019-06-01T15:28:29.905Z,38240.00
2019-06-01T15:29:30.088Z,38944.00
2019-06-01T15:30:30.274Z,39520.00
2019-06-01T15:31:30.468Z,40000.00
2019-06-01T15:32:30.646Z,37408.00
2019-06-01T15:33:30.824Z,34144.00
2019-06-01T15:34:31.012Z,37984.00
2019-06-01T15:35:31.191Z,40736.00
2019-06-01T15:36:31.392Z,41376.00
2019-06-01T15:37:31.568Z,39360.00
2019-06-01T15:38:31.744Z,39424.00
2019-06-01T15:39:31.929Z,39296.00
2019-06-01T15:40:32.111Z,37312.00
2019-06-01T15:41:32.299Z,36576.00
2019-06-01T15:42:32.486Z,38208.00
2019-06-01T15:43:32.666Z,37120.00
2019-06-01T15:44:32.850Z,33440.00
2019-06-01T15:45:33.040Z,33920.00
2019-06-01T15:46:33.226Z,35040.00
2019-06-01T15:47:33.408Z,32992.00
2019-06-01T15:48:33.594Z,32160.00
2019-06-01T15:49:33.774Z,32224.00
2019-06-01T15:50:33.956Z,31360.00
2019-06-01T15:51:34.140Z,31648.00
2019-06-01T15:52:34.325Z,33728.00
2019-06-01T15:53:34.509Z,33696.00
2019-06-01T15:54:34.699Z,31872.00
2019-06-01T15:55:34.877Z,32032.00
2019-06-01T15:56:35.058Z,32416.00
2019-06-01T15:57:35.241Z,31904.00
2019-06-01T15:58:51.418Z,29504.00
2019-06-01T15:59:35.607Z,30432.00